Mount Hood Parkdale, Oregon
Current Conditions -  °F | °C
As of 5:39 AM on Thursday 23 Oct 2014 (Local Time) from K4S2 Reporting Station
Moderate Rain Moderate Rain  
Wind Chill: 52°   Ceiling: 3700
Heat Index: 52°   Visibility: 3mi
Dew Point: 50°   Wind: 0mph
Humidity: 94%   Direction: NA
Pressure: 29.79"   Gusts: NA
Location:  45.52°N, 121.59°W
Report Text: K4S2 231239Z AUTO 00000KT 3SM RA SCT004 BKN037 OVC065 11/10 A2979 RMK AO2 P0004 SLP101 T01100100
Loading
Personal Weather Stations






























Interactive Weather Map
Tropical Storm Tracking
New forecast layout! Learn more

10-Day Weather Forecast

Advertisements
Track Severe Weather on mobile